Terminal Aerodrome Forecast
Issued by NWS Green Bay, WI

Home | Current Version | Previous Version | Text Only | Print | Product List | Glossary Off
Versions: 1 2 3 4 5 6 7 8 9 10 11 12 13 14 15 16 17 18 19 20 21 22 23 24

000
FTUS43 KGRB 090900 AAA
TAFGRB
TAF AMD
KGRB 090948Z 0910/1006 30004KT P6SM VCSH SCT040 BKN100
      TEMPO 0910/0912 SCT020 BKN040
     FM091500 30008KT P6SM SCT040
     FM091700 30009G14KT P6SM VCSH SCT035 BKN060
     FM092300 VRB03KT P6SM SCT060=

USA.gov is the U.S. government's official web portal to all federal, state and local government web resources and services.